createdAt,value
2019-03-10T00:01:12.396Z,99504.28
2019-03-10T00:03:44.196Z,99506.01
2019-03-10T00:06:15.831Z,99536.40
2019-03-10T00:08:47.226Z,99553.34
2019-03-10T00:11:18.845Z,99546.81
2019-03-10T00:13:50.567Z,99584.59
2019-03-10T00:16:22.442Z,99593.29
2019-03-10T00:18:54.317Z,99591.11
2019-03-10T00:21:25.984Z,99634.11
2019-03-10T00:23:57.342Z,99650.17
2019-03-10T00:26:29.322Z,99644.92
2019-03-10T00:29:01.562Z,99670.06
2019-03-10T00:31:33.221Z,99670.92
2019-03-10T00:34:05.176Z,99699.94
2019-03-10T00:36:37.908Z,99706.87
2019-03-10T00:39:38.861Z,99726.36
2019-03-10T00:42:49.542Z,99739.34
2019-03-10T00:46:08.846Z,99754.92
2019-03-10T00:49:18.188Z,99766.63
2019-03-10T00:52:04.405Z,99767.92
2019-03-10T00:54:35.990Z,99784.80
2019-03-10T00:57:07.664Z,99790.42
2019-03-10T00:59:39.595Z,99803.86
2019-03-10T01:02:11.112Z,99794.33
2019-03-10T01:04:42.822Z,99829.88
2019-03-10T01:07:14.502Z,99819.05
2019-03-10T01:09:46.332Z,99830.76
2019-03-10T01:12:17.957Z,99826.39
2019-03-10T01:14:49.802Z,99839.82
2019-03-10T01:17:22.475Z,99841.99
2019-03-10T01:19:54.224Z,99848.03
2019-03-10T01:22:26.227Z,99858.44
2019-03-10T01:24:57.981Z,99860.16
2019-03-10T01:27:29.756Z,99860.16
2019-03-10T01:30:01.464Z,99861.88
2019-03-10T01:33:12.401Z,99867.09
2019-03-10T01:35:44.278Z,99867.55
2019-03-10T01:38:16.293Z,99878.33
2019-03-10T01:40:48.375Z,99881.38
2019-03-10T01:43:19.787Z,99881.38
2019-03-10T01:45:51.425Z,99883.94
2019-03-10T01:48:23.052Z,99886.06
2019-03-10T01:50:54.964Z,99875.66
2019-03-10T01:53:26.544Z,99889.02
2019-03-10T01:55:58.616Z,99891.16
2019-03-10T01:58:30.351Z,99898.08
2019-03-10T02:01:02.079Z,99891.67
2019-03-10T02:03:33.808Z,99898.61
2019-03-10T02:06:05.754Z,99889.96
2019-03-10T02:08:37.281Z,99896.01
2019-03-10T02:11:08.951Z,99887.84
2019-03-10T02:13:40.933Z,99912.55
2019-03-10T02:16:12.549Z,99920.77
2019-03-10T02:18:43.956Z,99922.13
2019-03-10T02:21:15.469Z,99926.03
2019-03-10T02:23:47.364Z,99922.59
2019-03-10T02:26:18.992Z,99909.58
2019-03-10T02:28:50.723Z,99909.13
2019-03-10T02:31:22.260Z,99915.20
2019-03-10T02:33:53.788Z,99909.06
2019-03-10T02:36:25.157Z,99905.58
2019-03-10T02:38:56.725Z,99914.67
2019-03-10T02:41:28.204Z,99910.31
2019-03-10T02:43:59.862Z,99915.09
2019-03-10T02:46:31.644Z,99897.77
2019-03-10T02:49:03.252Z,99906.81
2019-03-10T02:51:34.820Z,99908.95
2019-03-10T02:54:07.810Z,99912.02
2019-03-10T02:56:39.474Z,99905.16
2019-03-10T02:59:11.334Z,99899.48
2019-03-10T03:01:42.887Z,99900.73
2019-03-10T03:04:14.777Z,99929.34
2019-03-10T03:06:46.438Z,99905.63
2019-03-10T03:09:17.971Z,99923.44
2019-03-10T03:11:49.448Z,99910.42
2019-03-10T03:14:21.233Z,99908.70
2019-03-10T03:16:53.034Z,99912.66
2019-03-10T03:19:24.619Z,99921.34
2019-03-10T03:21:56.566Z,99929.16
2019-03-10T03:24:30.317Z,99935.72
2019-03-10T03:27:02.675Z,99910.12
2019-03-10T03:29:34.505Z,99931.81
2019-03-10T03:32:06.256Z,99929.58
2019-03-10T03:34:37.915Z,99926.92
2019-03-10T03:37:12.211Z,99928.62
2019-03-10T03:39:49.864Z,99926.02
2019-03-10T03:42:21.267Z,99918.63
2019-03-10T03:44:53.145Z,99914.20
2019-03-10T03:47:24.617Z,99917.68
2019-03-10T03:49:55.974Z,99920.23
2019-03-10T03:52:27.469Z,99912.42
2019-03-10T03:54:59.357Z,99916.27
2019-03-10T03:57:31.168Z,99920.16
2019-03-10T04:00:02.772Z,99920.11
2019-03-10T04:02:38.811Z,99917.02
2019-03-10T04:05:10.523Z,99926.13
2019-03-10T04:07:41.934Z,99922.22
2019-03-10T04:10:15.491Z,99932.28
2019-03-10T04:12:47.166Z,99935.41
2019-03-10T04:15:18.824Z,99922.47
2019-03-10T04:17:50.510Z,99916.86
2019-03-10T04:20:22.035Z,99927.67
2019-03-10T04:22:53.739Z,99919.41
2019-03-10T04:25:25.567Z,99918.16
2019-03-10T04:27:57.142Z,99915.14
2019-03-10T04:30:28.877Z,99909.53
2019-03-10T04:33:00.346Z,99904.75
2019-03-10T04:35:32.010Z,99902.56
2019-03-10T04:38:03.686Z,99905.22
2019-03-10T04:40:35.170Z,99914.43
2019-03-10T04:43:06.577Z,99903.20
2019-03-10T04:45:38.208Z,99899.23
2019-03-10T04:48:09.766Z,99898.36
2019-03-10T04:50:41.295Z,99911.37
2019-03-10T04:53:13.030Z,99904.50
2019-03-10T04:55:46.149Z,99904.53
2019-03-10T04:58:18.196Z,99918.44
2019-03-10T05:00:51.536Z,99912.88
2019-03-10T05:03:23.563Z,99902.41
2019-03-10T05:05:55.111Z,99897.20
2019-03-10T05:08:26.848Z,99895.48
2019-03-10T05:10:58.173Z,99886.34
2019-03-10T05:13:29.682Z,99897.62
2019-03-10T05:16:01.674Z,99891.06
2019-03-10T05:18:33.226Z,99894.50
2019-03-10T05:21:04.984Z,99898.86
2019-03-10T05:23:41.185Z,99897.57
2019-03-10T05:26:13.345Z,99888.46
2019-03-10T05:28:48.377Z,99884.14
2019-03-10T05:31:19.741Z,99881.95
2019-03-10T05:33:51.581Z,99891.02
2019-03-10T05:36:22.927Z,99892.78
2019-03-10T05:38:54.242Z,99892.36
2019-03-10T05:41:26.053Z,99887.16
2019-03-10T05:43:58.858Z,99891.89
2019-03-10T05:46:31.456Z,99891.86
2019-03-10T05:49:03.173Z,99894.86
2019-03-10T05:51:34.724Z,99891.43
2019-03-10T05:54:06.352Z,99877.58
2019-03-10T05:56:37.991Z,99886.27
2019-03-10T05:59:09.835Z,99893.20
2019-03-10T06:01:42.123Z,99891.48
2019-03-10T06:04:13.416Z,99881.91
2019-03-10T06:06:45.030Z,99896.70
2019-03-10T06:09:16.619Z,99904.08
2019-03-10T06:11:47.980Z,99911.48
2019-03-10T06:14:19.679Z,99911.05
2019-03-10T06:16:51.345Z,99903.24
2019-03-10T06:19:22.771Z,99904.97
2019-03-10T06:21:54.317Z,99918.45
2019-03-10T06:24:26.016Z,99899.39
2019-03-10T06:26:57.525Z,99899.02
2019-03-10T06:29:29.087Z,99899.06
2019-03-10T06:32:00.587Z,99889.95
2019-03-10T06:34:32.337Z,99892.65
2019-03-10T06:37:04.040Z,99892.23
2019-03-10T06:39:35.721Z,99894.45
2019-03-10T06:42:07.320Z,99904.95
2019-03-10T06:44:38.746Z,99902.77
2019-03-10T06:47:10.334Z,99909.23
2019-03-10T06:49:41.708Z,99884.95
2019-03-10T06:52:13.423Z,99895.45
2019-03-10T06:54:44.918Z,99895.87
2019-03-10T06:57:16.482Z,99897.20
2019-03-10T06:59:50.017Z,99891.15
2019-03-10T07:02:21.293Z,99896.78
2019-03-10T07:04:53.045Z,99894.63
2019-03-10T07:07:24.398Z,99899.00
2019-03-10T07:09:55.872Z,99884.78
2019-03-10T07:12:27.713Z,99881.89
2019-03-10T07:14:59.468Z,99880.18
2019-03-10T07:17:31.219Z,99887.92
2019-03-10T07:20:02.726Z,99887.91
2019-03-10T07:22:34.356Z,99897.88
2019-03-10T07:25:06.491Z,99892.25
2019-03-10T07:27:56.242Z,99897.45
2019-03-10T07:30:32.317Z,99900.91
2019-03-10T07:33:05.338Z,99885.72
2019-03-10T07:35:53.796Z,99897.04
2019-03-10T07:38:29.870Z,99883.65
2019-03-10T07:41:06.172Z,99893.23
2019-03-10T07:43:57.265Z,99890.16
2019-03-10T07:46:45.826Z,99901.39
2019-03-10T07:49:24.997Z,99890.12
2019-03-10T07:51:58.415Z,99901.92
2019-03-10T07:54:34.210Z,99888.03
2019-03-10T07:57:13.783Z,99879.77
2019-03-10T08:00:01.987Z,99873.17
2019-03-10T08:02:39.761Z,99871.59
2019-03-10T08:05:31.466Z,99867.25
2019-03-10T08:08:10.978Z,99871.48
2019-03-10T08:10:55.697Z,99869.02
2019-03-10T08:13:43.634Z,99873.56
2019-03-10T08:16:21.015Z,99861.52
2019-03-10T08:18:52.958Z,99871.96
2019-03-10T08:21:25.929Z,99884.48
2019-03-10T08:23:59.123Z,99867.84
2019-03-10T08:26:38.706Z,99880.36
2019-03-10T08:29:11.937Z,99865.67
2019-03-10T08:32:01.215Z,99872.73
2019-03-10T08:34:44.137Z,99868.73
2019-03-10T08:37:36.654Z,99874.22
2019-03-10T08:40:26.109Z,99876.64
2019-03-10T08:42:59.789Z,99895.73
2019-03-10T08:45:32.828Z,99884.22
2019-03-10T08:48:24.232Z,99900.27
2019-03-10T08:51:00.431Z,99886.66
2019-03-10T08:53:46.080Z,99898.06
2019-03-10T08:56:19.201Z,99903.52
2019-03-10T08:58:52.223Z,99909.75
2019-03-10T09:01:37.676Z,99907.13
2019-03-10T09:04:16.653Z,99908.42
2019-03-10T09:07:08.172Z,99903.02
2019-03-10T09:09:41.704Z,99897.84
2019-03-10T09:12:14.755Z,99906.08
2019-03-10T09:14:56.769Z,99891.69
2019-03-10T09:17:41.819Z,99890.55
2019-03-10T09:20:15.469Z,99875.11
2019-03-10T09:22:48.814Z,99878.25
2019-03-10T09:25:37.295Z,99900.86
2019-03-10T09:28:20.820Z,99889.19
2019-03-10T09:30:53.883Z,99895.29
2019-03-10T09:33:39.391Z,99893.47
2019-03-10T09:36:12.420Z,99893.31
2019-03-10T09:38:54.411Z,99888.95
2019-03-10T09:41:30.821Z,99883.06
2019-03-10T09:44:04.260Z,99897.42
2019-03-10T09:46:43.661Z,99885.64
2019-03-10T09:49:33.587Z,99878.09
2019-03-10T09:52:09.505Z,99865.36
2019-03-10T09:54:42.526Z,99876.33
2019-03-10T09:57:21.499Z,99859.97
2019-03-10T10:00:03.453Z,99865.66
2019-03-10T10:02:56.224Z,99840.19
2019-03-10T10:05:32.536Z,99857.77
2019-03-10T10:08:22.558Z,99851.92
2019-03-10T10:10:58.755Z,99851.41
2019-03-10T10:13:34.282Z,99846.61
2019-03-10T10:16:07.418Z,99860.81
2019-03-10T10:18:43.703Z,99862.53
2019-03-10T10:21:17.082Z,99856.25
2019-03-10T10:23:50.102Z,99857.30
2019-03-10T10:26:23.547Z,99842.59
2019-03-10T10:28:56.838Z,99847.52
2019-03-10T10:31:36.893Z,99858.69
2019-03-10T10:34:16.435Z,99839.61
2019-03-10T10:36:55.686Z,99827.47
2019-03-10T10:39:45.626Z,99835.50
2019-03-10T10:42:21.903Z,99837.58
2019-03-10T10:45:01.008Z,99827.63
2019-03-10T10:47:43.247Z,99827.53
2019-03-10T10:50:19.955Z,99855.23
2019-03-10T10:52:53.352Z,99839.95
2019-03-10T10:55:42.644Z,99835.27
2019-03-10T10:58:32.310Z,99842.60
2019-03-10T11:01:06.003Z,99854.09
2019-03-10T11:03:57.263Z,99857.13
2019-03-10T11:06:30.289Z,99842.75
2019-03-10T11:09:03.373Z,99847.79
2019-03-10T11:11:42.098Z,99863.08
2019-03-10T11:14:21.994Z,99856.28
2019-03-10T11:16:55.100Z,99873.57
2019-03-10T11:19:34.701Z,99872.67
2019-03-10T11:22:11.202Z,99866.55
2019-03-10T11:24:47.579Z,99865.09
2019-03-10T11:27:32.743Z,99876.75
2019-03-10T11:30:19.047Z,99861.09
2019-03-10T11:33:10.882Z,99860.59
2019-03-10T11:35:49.714Z,99855.34
2019-03-10T11:38:39.212Z,99861.19
2019-03-10T11:41:13.641Z,99848.50
2019-03-10T11:44:01.814Z,99839.88
2019-03-10T11:46:35.456Z,99845.66
2019-03-10T11:49:21.028Z,99835.04
2019-03-10T11:51:57.765Z,99835.18
2019-03-10T11:54:47.465Z,99842.09
2019-03-10T11:57:23.570Z,99834.37
2019-03-10T12:00:03.092Z,99826.24
2019-03-10T12:02:43.559Z,99818.77
2019-03-10T12:05:26.188Z,99826.78
2019-03-10T12:08:02.334Z,99824.27
2019-03-10T12:10:34.154Z,99829.11
2019-03-10T12:13:05.651Z,99830.83
2019-03-10T12:15:37.441Z,99810.52
2019-03-10T12:18:09.367Z,99816.84
2019-03-10T12:20:41.084Z,99816.06
2019-03-10T12:23:12.797Z,99804.82
2019-03-10T12:25:44.827Z,99808.71
2019-03-10T12:28:16.495Z,99799.55
2019-03-10T12:30:48.194Z,99801.36
2019-03-10T12:33:19.649Z,99801.24
2019-03-10T12:35:51.173Z,99799.88
2019-03-10T12:38:22.929Z,99795.90
2019-03-10T12:40:54.407Z,99805.98
2019-03-10T12:43:25.950Z,99790.45
2019-03-10T12:45:57.641Z,99791.10
2019-03-10T12:48:29.333Z,99787.37
2019-03-10T12:51:00.804Z,99788.30
2019-03-10T12:53:34.606Z,99778.18
2019-03-10T12:56:06.736Z,99782.03
2019-03-10T12:58:38.221Z,99767.58
2019-03-10T13:01:10.175Z,99769.42
2019-03-10T13:03:41.832Z,99770.37
2019-03-10T13:06:13.356Z,99773.58
2019-03-10T13:08:45.059Z,99769.38
2019-03-10T13:11:16.341Z,99761.09
2019-03-10T13:13:47.895Z,99761.87
2019-03-10T13:16:21.264Z,99761.23
2019-03-10T13:18:53.048Z,99748.47
2019-03-10T13:21:26.147Z,99748.44
2019-03-10T13:23:58.040Z,99748.40
2019-03-10T13:26:29.709Z,99742.62
2019-03-10T13:29:01.252Z,99739.25
2019-03-10T13:31:33.325Z,99727.86
2019-03-10T13:34:05.005Z,99728.73
2019-03-10T13:36:36.698Z,99732.19
2019-03-10T13:39:08.843Z,99723.27
2019-03-10T13:41:41.693Z,99732.06
2019-03-10T13:44:13.585Z,99718.98
2019-03-10T13:46:45.119Z,99709.50
2019-03-10T13:49:17.827Z,99711.70
2019-03-10T13:51:49.559Z,99700.67
2019-03-10T13:54:21.153Z,99701.55
2019-03-10T13:56:52.520Z,99699.06
2019-03-10T13:59:24.002Z,99695.19
2019-03-10T14:01:55.697Z,99691.97
2019-03-10T14:04:27.483Z,99678.84
2019-03-10T14:06:59.142Z,99685.03
2019-03-10T14:09:30.839Z,99683.14
2019-03-10T14:12:03.451Z,99675.28
2019-03-10T14:14:34.837Z,99676.38
2019-03-10T14:17:06.620Z,99671.81
2019-03-10T14:19:38.071Z,99662.72
2019-03-10T14:22:09.955Z,99658.87
2019-03-10T14:24:41.692Z,99648.55
2019-03-10T14:27:13.082Z,99641.97
2019-03-10T14:29:45.285Z,99641.53
2019-03-10T14:32:17.027Z,99635.42
2019-03-10T14:34:48.747Z,99638.59
2019-03-10T14:37:20.709Z,99636.45
2019-03-10T14:39:52.484Z,99630.72
2019-03-10T14:42:24.029Z,99622.42
2019-03-10T14:44:55.882Z,99621.06
2019-03-10T14:47:27.683Z,99611.54
2019-03-10T14:49:59.582Z,99612.44
2019-03-10T14:52:31.995Z,99606.79
2019-03-10T14:55:03.929Z,99604.17
2019-03-10T14:57:35.744Z,99595.38
2019-03-10T15:00:09.717Z,99594.06
2019-03-10T15:02:41.713Z,99592.08
2019-03-10T15:05:13.234Z,99580.83
2019-03-10T15:07:44.785Z,99584.75
2019-03-10T15:10:17.161Z,99580.85
2019-03-10T15:12:48.713Z,99584.06
2019-03-10T15:15:22.683Z,99584.56
2019-03-10T15:17:53.871Z,99584.93
2019-03-10T15:20:26.523Z,99577.56
2019-03-10T15:22:58.656Z,99572.34
2019-03-10T15:25:30.190Z,99567.55
2019-03-10T15:28:02.824Z,99568.05
2019-03-10T15:30:34.634Z,99562.00
2019-03-10T15:33:06.077Z,99558.45
2019-03-10T15:35:37.890Z,99555.08
2019-03-10T15:38:11.322Z,99550.19
2019-03-10T15:40:43.027Z,99541.05
2019-03-10T15:43:14.496Z,99535.77
2019-03-10T15:45:45.915Z,99530.20
2019-03-10T15:48:17.354Z,99531.94
2019-03-10T15:50:48.742Z,99528.04
2019-03-10T15:53:20.467Z,99524.19
2019-03-10T15:55:51.889Z,99519.44
2019-03-10T15:58:23.666Z,99510.27
2019-03-10T16:00:55.544Z,99507.28
2019-03-10T16:03:27.147Z,99502.02
2019-03-10T16:05:58.935Z,99499.02
2019-03-10T16:08:30.704Z,99501.24
2019-03-10T16:11:02.503Z,99497.36
2019-03-10T16:13:34.272Z,99487.38
2019-03-10T16:16:07.026Z,99484.38
2019-03-10T16:18:38.801Z,99485.27
2019-03-10T16:21:10.979Z,99477.04
2019-03-10T16:23:42.693Z,99470.91
2019-03-10T16:26:15.085Z,99472.26
2019-03-10T16:28:46.711Z,99473.19
2019-03-10T16:31:18.383Z,99465.81
2019-03-10T16:33:50.251Z,99470.22
2019-03-10T16:36:21.910Z,99467.63
2019-03-10T16:38:53.641Z,99456.80
2019-03-10T16:41:25.376Z,99460.69
2019-03-10T16:43:57.041Z,99456.80
2019-03-10T16:46:29.507Z,99445.05
2019-03-10T16:49:01.338Z,99440.77
2019-03-10T16:51:32.878Z,99436.02
2019-03-10T16:54:05.101Z,99429.55
2019-03-10T16:56:36.568Z,99425.62
2019-03-10T16:59:08.238Z,99428.30
2019-03-10T17:01:39.969Z,99419.63
2019-03-10T17:04:11.530Z,99423.13
2019-03-10T17:06:43.292Z,99423.64
2019-03-10T17:09:21.033Z,99417.17
2019-03-10T17:11:53.102Z,99423.73
2019-03-10T17:14:24.557Z,99419.00
2019-03-10T17:16:56.357Z,99410.73
2019-03-10T17:19:28.034Z,99418.14
2019-03-10T17:21:59.813Z,99421.26
2019-03-10T17:24:31.180Z,99417.34
2019-03-10T17:27:04.825Z,99417.82
2019-03-10T17:29:36.265Z,99422.64
2019-03-10T17:32:08.291Z,99418.77
2019-03-10T17:34:41.077Z,99403.11
2019-03-10T17:37:12.639Z,99398.81
2019-03-10T17:39:44.521Z,99403.59
2019-03-10T17:42:16.340Z,99393.16
2019-03-10T17:44:47.992Z,99391.87
2019-03-10T17:47:19.729Z,99387.52
2019-03-10T17:49:51.212Z,99395.47
2019-03-10T17:52:22.719Z,99391.53
2019-03-10T17:54:54.681Z,99386.81
2019-03-10T17:57:28.016Z,99378.97
2019-03-10T17:59:59.849Z,99382.05
2019-03-10T18:02:31.607Z,99378.13
2019-03-10T18:05:03.189Z,99383.80
2019-03-10T18:07:34.824Z,99379.02
2019-03-10T18:10:07.157Z,99371.23
2019-03-10T18:12:39.189Z,99368.17
2019-03-10T18:15:11.500Z,99365.62
2019-03-10T18:17:43.377Z,99367.38
2019-03-10T18:20:15.379Z,99362.16
2019-03-10T18:22:47.112Z,99366.08
2019-03-10T18:25:20.116Z,99369.53
2019-03-10T18:27:51.883Z,99368.32
2019-03-10T18:30:23.721Z,99365.66
2019-03-10T18:32:55.492Z,99367.40
2019-03-10T18:35:26.981Z,99374.36
2019-03-10T18:37:58.596Z,99375.29
2019-03-10T18:40:30.576Z,99369.59
2019-03-10T18:43:02.135Z,99358.22
2019-03-10T18:45:33.802Z,99360.00
2019-03-10T18:48:05.996Z,99365.30
2019-03-10T18:50:38.820Z,99360.98
2019-03-10T18:53:11.595Z,99355.75
2019-03-10T18:55:43.583Z,99359.31
2019-03-10T18:58:16.223Z,99364.55
2019-03-10T19:00:48.223Z,99357.12
2019-03-10T19:03:21.359Z,99359.30
2019-03-10T19:05:52.970Z,99372.34
2019-03-10T19:08:24.679Z,99365.89
2019-03-10T19:10:56.329Z,99368.94
2019-03-10T19:13:27.982Z,99373.22
2019-03-10T19:16:00.403Z,99367.22
2019-03-10T19:18:31.975Z,99368.42
2019-03-10T19:21:03.680Z,99363.23
2019-03-10T19:23:35.257Z,99364.14
2019-03-10T19:26:07.282Z,99362.82
2019-03-10T19:28:39.425Z,99363.64
2019-03-10T19:31:11.148Z,99356.69
2019-03-10T19:33:42.807Z,99360.21
2019-03-10T19:36:14.457Z,99357.19
2019-03-10T19:38:45.931Z,99359.82
2019-03-10T19:41:17.716Z,99358.53
2019-03-10T19:43:49.453Z,99355.55
2019-03-10T19:46:21.009Z,99346.00
2019-03-10T19:48:52.624Z,99344.71
2019-03-10T19:51:24.299Z,99342.55
2019-03-10T19:53:55.945Z,99342.06
2019-03-10T19:56:27.905Z,99341.28
2019-03-10T19:58:59.374Z,99334.76
2019-03-10T20:01:30.892Z,99341.72
2019-03-10T20:04:02.484Z,99341.28
2019-03-10T20:06:34.268Z,99336.97
2019-03-10T20:09:07.817Z,99338.20
2019-03-10T20:11:39.649Z,99338.69
2019-03-10T20:14:11.135Z,99334.78
2019-03-10T20:16:42.770Z,99333.48
2019-03-10T20:19:14.354Z,99334.79
2019-03-10T20:21:46.214Z,99336.06
2019-03-10T20:24:17.938Z,99329.10
2019-03-10T20:26:49.852Z,99333.84
2019-03-10T20:29:21.403Z,99323.85
2019-03-10T20:31:53.015Z,99324.73
2019-03-10T20:34:24.785Z,99320.52
2019-03-10T20:36:56.303Z,99324.81
2019-03-10T20:39:27.968Z,99330.50
2019-03-10T20:42:04.993Z,99331.81
2019-03-10T20:44:33.306Z,99331.84
2019-03-10T20:47:05.296Z,99331.83
2019-03-10T20:49:36.895Z,99335.36
2019-03-10T20:52:08.541Z,99334.11
2019-03-10T20:54:39.988Z,99337.18
2019-03-10T20:57:11.529Z,99330.63
2019-03-10T20:59:43.128Z,99332.81
2019-03-10T21:02:15.025Z,99333.69
2019-03-10T21:04:46.346Z,99331.08
2019-03-10T21:07:18.043Z,99335.83
2019-03-10T21:09:49.787Z,99335.40
2019-03-10T21:12:21.810Z,99338.87
2019-03-10T21:14:54.020Z,99338.06
2019-03-10T21:17:25.770Z,99341.91
2019-03-10T21:19:57.350Z,99335.79
2019-03-10T21:22:29.384Z,99340.98
2019-03-10T21:25:01.106Z,99344.95
2019-03-10T21:27:32.983Z,99334.59
2019-03-10T21:30:05.387Z,99329.40
2019-03-10T21:32:37.096Z,99319.87
2019-03-10T21:35:17.104Z,99325.02
2019-03-10T21:37:42.763Z,99322.47
2019-03-10T21:40:15.967Z,99321.63
2019-03-10T21:42:47.639Z,99328.08
2019-03-10T21:45:19.679Z,99324.61
2019-03-10T21:47:52.428Z,99312.48
2019-03-10T21:50:24.227Z,99315.52
2019-03-10T21:52:56.159Z,99328.08
2019-03-10T21:55:28.052Z,99326.78
2019-03-10T21:57:59.644Z,99340.69
2019-03-10T22:00:31.370Z,99348.48
2019-03-10T22:03:03.285Z,99349.38
2019-03-10T22:05:35.088Z,99346.34
2019-03-10T22:08:06.728Z,99347.21
2019-03-10T22:10:39.854Z,99343.27
2019-03-10T22:13:11.976Z,99336.41
2019-03-10T22:15:42.457Z,99341.56
2019-03-10T22:18:13.699Z,99343.73
2019-03-10T22:20:44.092Z,99348.95
2019-03-10T22:23:14.375Z,99360.64
2019-03-10T22:25:44.868Z,99370.66
2019-03-10T22:28:15.098Z,99383.23
2019-03-10T22:30:45.446Z,99384.09
2019-03-10T22:33:15.924Z,99381.95
2019-03-10T22:35:46.155Z,99386.73
2019-03-10T22:38:16.375Z,99391.52
2019-03-10T22:40:46.802Z,99383.27
2019-03-10T22:43:16.948Z,99388.02
2019-03-10T22:45:47.401Z,99389.77
2019-03-10T22:48:17.597Z,99397.14
2019-03-10T22:50:47.897Z,99404.95
2019-03-10T22:53:19.196Z,99401.48
2019-03-10T22:55:49.825Z,99416.63
2019-03-10T22:58:20.371Z,99416.63
2019-03-10T23:00:52.429Z,99415.77
2019-03-10T23:03:22.965Z,99417.94
2019-03-10T23:05:53.183Z,99422.70
2019-03-10T23:08:23.462Z,99429.23
2019-03-10T23:10:56.074Z,99430.08
2019-03-10T23:13:26.424Z,99436.13
2019-03-10T23:15:56.619Z,99437.42
2019-03-10T23:18:27.090Z,99442.20
2019-03-10T23:20:57.342Z,99455.64
2019-03-10T23:23:29.004Z,99460.39
2019-03-10T23:25:59.509Z,99462.15
2019-03-10T23:28:30.028Z,99469.49
2019-03-10T23:31:00.149Z,99473.41
2019-03-10T23:33:31.611Z,99478.64
2019-03-10T23:36:01.661Z,99482.09
2019-03-10T23:38:32.642Z,99490.78
2019-03-10T23:41:02.963Z,99490.36
2019-03-10T23:43:33.493Z,99497.73
2019-03-10T23:46:03.984Z,99503.34
2019-03-10T23:48:34.216Z,99512.02
2019-03-10T23:51:04.616Z,99522.88
2019-03-10T23:53:35.146Z,99528.50
2019-03-10T23:56:05.721Z,99547.98
2019-03-10T23:58:35.900Z,99554.52
